Time;durP1;ratioP1;P1;durP2;ratioP2;P2;SDS_P1;SDS_P2;PMS_P1;PMS_P2;Temp;Humidity;BMP_temperature;BMP_pressure;BME280_temperature;BME280_humidity;BME280_pressure;Samples;Min_cycle;Max_cycle;Signal;HPM_P1;HPM_P2
2024/01/04 00:01:36;;;;;;;0.70;0.70;;;8.30;1.00;;;;;;5140468;27;20296;-83
2024/01/04 00:04:02;;;;;;;0.80;0.80;;;8.30;1.00;;;;;;5139862;27;20255;-82
2024/01/04 00:06:27;;;;;;;0.80;0.80;;;8.30;1.00;;;;;;5137864;27;20216;-82
2024/01/04 00:08:53;;;;;;;0.70;0.70;;;8.30;1.00;;;;;;5139228;27;20199;-80
2024/01/04 00:11:19;;;;;;;0.80;0.80;;;8.30;1.00;;;;;;5139389;27;20657;-82
2024/01/04 00:13:44;;;;;;;0.80;0.80;;;8.20;1.00;;;;;;5139692;27;20172;-81
2024/01/04 00:16:10;;;;;;;0.80;0.80;;;8.20;1.00;;;;;;5137141;27;20302;-81
2024/01/04 00:18:36;;;;;;;0.80;0.80;;;8.20;1.00;;;;;;5137042;27;20198;-81
2024/01/04 00:21:02;;;;;;;0.70;0.70;;;8.20;1.00;;;;;;5138177;27;20173;-81
2024/01/04 00:23:31;;;;;;;0.63;0.63;;;8.20;1.00;;;;;;5139547;27;20220;-82
2024/01/04 00:25:57;;;;;;;0.70;0.70;;;8.20;1.00;;;;;;5139174;27;20268;-82
2024/01/04 00:28:22;;;;;;;0.70;0.70;;;8.20;1.00;;;;;;5138353;27;20168;-83
2024/01/04 00:30:48;;;;;;;0.70;0.70;;;8.30;1.00;;;;;;5139644;27;20250;-83
2024/01/04 00:33:13;;;;;;;0.80;0.80;;;8.30;1.00;;;;;;5139904;27;20217;-82
2024/01/04 00:35:39;;;;;;;0.80;0.80;;;8.30;1.00;;;;;;5138448;27;20208;-81
2024/01/04 00:38:04;;;;;;;0.70;0.70;;;8.30;1.00;;;;;;5139460;27;20172;-82
2024/01/04 00:40:30;;;;;;;0.80;0.80;;;8.30;1.00;;;;;;5138514;27;20189;-83
2024/01/04 00:42:57;;;;;;;0.67;0.67;;;8.20;1.00;;;;;;5137889;27;20259;-80
2024/01/04 00:45:23;;;;;;;0.87;0.87;;;8.10;1.00;;;;;;5138082;27;20255;-83
2024/01/04 00:47:48;;;;;;;0.70;0.70;;;8.50;1.00;;;;;;5138634;27;20242;-83
2024/01/04 00:50:14;;;;;;;0.80;0.80;;;8.10;1.00;;;;;;5136805;27;20175;-80
2024/01/04 00:52:39;;;;;;;0.70;0.70;;;8.10;1.00;;;;;;5138844;27;20172;-78
2024/01/04 00:55:05;;;;;;;0.77;0.77;;;8.10;1.00;;;;;;5135563;27;20261;-83
2024/01/04 00:57:31;;;;;;;0.70;0.70;;;8.10;1.00;;;;;;5136939;27;20192;-82
2024/01/04 00:59:56;;;;;;;0.73;0.73;;;8.10;1.00;;;;;;5137418;27;20179;-83
2024/01/04 01:02:22;;;;;;;0.70;0.70;;;8.10;1.00;;;;;;5138280;27;20225;-81
2024/01/04 01:04:47;;;;;;;0.87;0.87;;;8.70;1.00;;;;;;5137926;27;20176;-82
2024/01/04 01:07:13;;;;;;;0.80;0.80;;;8.20;1.00;;;;;;5137442;27;20275;-83
2024/01/04 01:09:38;;;;;;;0.70;0.70;;;8.10;1.00;;;;;;5138597;27;20180;-83
2024/01/04 01:12:04;;;;;;;0.80;0.80;;;8.20;1.00;;;;;;5138322;27;20176;-83
2024/01/04 01:14:30;;;;;;;0.80;0.80;;;8.20;1.00;;;;;;5138460;27;20176;-83
2024/01/04 01:16:55;;;;;;;0.70;0.70;;;8.30;1.00;;;;;;5136333;27;20212;-80
2024/01/04 01:19:21;;;;;;;0.63;0.63;;;8.20;1.00;;;;;;5138261;27;20168;-83
2024/01/04 01:21:47;;;;;;;0.80;0.80;;;8.10;1.00;;;;;;5139350;27;20168;-82
2024/01/04 01:24:12;;;;;;;0.80;0.80;;;8.10;1.00;;;;;;5140007;27;20165;-83
2024/01/04 01:26:38;;;;;;;0.60;0.60;;;8.20;4.90;;;;;;5145847;27;20329;-81
2024/01/04 01:29:03;;;;;;;0.73;0.73;;;8.10;9.30;;;;;;5146077;27;20221;-81
2024/01/04 01:31:29;;;;;;;0.70;0.70;;;8.20;9.20;;;;;;5141646;27;20184;-83
2024/01/04 01:33:54;;;;;;;0.97;0.97;;;8.20;11.00;;;;;;5135391;27;20180;-83
2024/01/04 01:36:20;;;;;;;0.80;0.80;;;8.20;14.20;;;;;;5134384;27;20298;-81
2024/01/04 01:38:46;;;;;;;0.70;0.70;;;8.20;13.50;;;;;;5135049;27;20177;-83
2024/01/04 01:41:11;;;;;;;0.70;0.70;;;8.20;20.90;;;;;;5134900;27;20173;-82
2024/01/04 01:43:37;;;;;;;0.60;0.60;;;8.20;18.50;;;;;;5146447;27;20217;-78
2024/01/04 01:46:03;;;;;;;0.70;0.70;;;8.40;18.40;;;;;;5156972;27;20212;-81
2024/01/04 01:48:29;;;;;;;0.70;0.70;;;8.20;16.60;;;;;;5153301;27;20205;-80
2024/01/04 01:50:54;;;;;;;0.80;0.80;;;8.20;11.50;;;;;;5147731;28;20173;-81
2024/01/04 01:53:21;;;;;;;0.70;0.70;;;8.10;1.00;;;;;;5147072;27;20180;-80
2024/01/04 01:55:47;;;;;;;0.80;0.80;;;8.10;1.00;;;;;;5148439;27;20766;-79
2024/01/04 01:58:12;;;;;;;0.70;0.70;;;8.10;1.00;;;;;;5151169;27;20188;-80
2024/01/04 02:00:38;;;;;;;0.70;0.70;;;8.10;1.00;;;;;;5153115;27;20192;-80
2024/01/04 02:03:05;;;;;;;0.70;0.70;;;8.00;2.90;;;;;;5154633;27;20168;-81
2024/01/04 02:05:31;;;;;;;0.80;0.80;;;7.90;27.40;;;;;;5151115;27;20259;-82
2024/01/04 02:07:57;;;;;;;0.80;0.80;;;7.80;55.80;;;;;;5129727;27;20212;-81
2024/01/04 02:10:22;;;;;;;0.70;0.70;;;7.80;34.20;;;;;;5121422;28;20258;-82
2024/01/04 02:12:48;;;;;;;0.67;0.67;;;7.80;52.80;;;;;;5121499;28;20238;-81
2024/01/04 02:15:14;;;;;;;0.70;0.70;;;7.80;52.80;;;;;;5122010;27;20205;-81
2024/01/04 02:17:40;;;;;;;0.80;0.80;;;7.60;16.60;;;;;;5125860;28;20674;-83
2024/01/04 02:20:07;;;;;;;0.90;0.90;;;7.60;1.00;;;;;;5121674;28;20169;-83
2024/01/04 02:22:35;;;;;;;0.80;0.80;;;7.50;1.00;;;;;;5120621;28;20173;-81
2024/01/04 02:25:00;;;;;;;0.77;0.77;;;7.40;1.00;;;;;;5120455;28;20234;-81
2024/01/04 02:27:26;;;;;;;0.77;0.77;;;7.30;1.00;;;;;;5119554;28;20196;-82
2024/01/04 02:29:51;;;;;;;0.70;0.70;;;7.30;1.00;;;;;;5120435;28;20545;-82
2024/01/04 02:32:17;;;;;;;0.60;0.60;;;7.30;1.00;;;;;;5119677;28;20666;-81
2024/01/04 02:34:43;;;;;;;0.70;0.70;;;7.30;1.00;;;;;;5119819;28;20195;-82
2024/01/04 02:37:08;;;;;;;0.70;0.70;;;7.30;1.00;;;;;;5118773;28;20197;-81
2024/01/04 02:39:34;;;;;;;0.80;0.80;;;7.30;12.50;;;;;;5119663;28;20260;-81
2024/01/04 02:41:59;;;;;;;0.80;0.80;;;7.30;26.10;;;;;;5119798;28;20654;-82
2024/01/04 02:44:25;;;;;;;0.80;0.80;;;7.30;37.90;;;;;;5120108;28;20177;-82
2024/01/04 02:46:50;;;;;;;0.80;0.80;;;7.30;54.80;;;;;;5124287;28;20250;-80
2024/01/04 02:49:16;;;;;;;0.60;0.60;;;7.20;82.10;;;;;;5119814;28;20185;-82
2024/01/04 02:51:41;;;;;;;0.70;0.70;;;7.20;91.80;;;;;;5118660;28;20181;-82
2024/01/04 02:54:08;;;;;;;0.80;0.80;;;7.20;90.50;;;;;;5117972;28;20569;-82
2024/01/04 02:56:33;;;;;;;0.70;0.70;;;7.20;86.50;;;;;;5119327;28;20209;-82
2024/01/04 02:58:59;;;;;;;0.73;0.73;;;7.20;63.10;;;;;;5119543;28;20185;-82
2024/01/04 03:01:24;;;;;;;0.70;0.70;;;7.10;41.00;;;;;;5119861;28;20173;-82
2024/01/04 03:03:51;;;;;;;0.67;0.67;;;7.10;43.20;;;;;;5119293;28;20229;-82
2024/01/04 03:06:36;;;;;;;0.80;0.80;;;7.00;44.20;;;;;;5119130;28;20662;-80
2024/01/04 03:09:02;;;;;;;0.73;0.73;;;7.00;44.30;;;;;;5118150;28;20189;-80
2024/01/04 03:11:28;;;;;;;0.90;0.90;;;6.90;46.20;;;;;;5119266;28;20177;-83
2024/01/04 03:13:53;;;;;;;0.73;0.73;;;6.90;66.20;;;;;;5120147;28;20550;-82
2024/01/04 03:16:20;;;;;;;0.80;0.80;;;6.90;74.90;;;;;;5120976;28;20624;-79
2024/01/04 03:18:46;;;;;;;0.70;0.70;;;6.90;50.20;;;;;;5123307;28;20173;-82
2024/01/04 03:21:13;;;;;;;0.60;0.60;;;6.90;8.60;;;;;;5117997;28;20173;-82
2024/01/04 03:23:38;;;;;;;0.60;0.60;;;6.90;10.50;;;;;;5119221;28;20161;-81
2024/01/04 03:26:04;;;;;;;0.70;0.70;;;6.90;1.00;;;;;;5119300;28;20197;-82
2024/01/04 03:28:30;;;;;;;0.70;0.70;;;6.90;1.00;;;;;;5119300;28;20255;-81
2024/01/04 03:30:56;;;;;;;0.60;0.60;;;6.90;1.00;;;;;;5119348;28;20719;-83
2024/01/04 03:33:21;;;;;;;0.70;0.70;;;6.80;1.00;;;;;;5118633;28;20169;-82
2024/01/04 03:35:47;;;;;;;0.80;0.80;;;6.80;1.00;;;;;;5117848;28;20292;-81
2024/01/04 03:38:12;;;;;;;0.70;0.70;;;6.80;1.00;;;;;;5119510;28;20188;-81
2024/01/04 03:40:38;;;;;;;0.80;0.80;;;6.80;1.00;;;;;;5118721;28;20169;-81
2024/01/04 03:43:04;;;;;;;0.60;0.60;;;6.80;5.20;;;;;;5120214;28;20169;-82
2024/01/04 03:45:31;;;;;;;0.70;0.70;;;6.80;14.10;;;;;;5119156;28;20544;-79
2024/01/04 03:47:57;;;;;;;0.70;0.70;;;6.80;22.20;;;;;;5127422;28;20219;-80
2024/01/04 03:50:23;;;;;;;0.70;0.70;;;6.80;52.30;;;;;;5123205;28;20810;-82
2024/01/04 03:52:48;;;;;;;0.80;0.80;;;6.80;54.60;;;;;;5128038;28;20173;-80
2024/01/04 03:55:17;;;;;;;0.70;0.70;;;6.80;66.10;;;;;;5132616;28;20254;-79
2024/01/04 03:57:43;;;;;;;0.60;0.60;;;6.90;50.70;;;;;;5132517;28;20676;-80
2024/01/04 04:00:10;;;;;;;0.80;0.80;;;7.30;84.30;;;;;;5132505;28;20184;-82
2024/01/04 04:02:35;;;;;;;0.80;0.80;;;6.90;88.40;;;;;;5123868;28;20175;-82
2024/01/04 04:05:01;;;;;;;0.70;0.70;;;6.90;92.20;;;;;;5120889;28;20264;-83
2024/01/04 04:07:27;;;;;;;0.70;0.70;;;7.00;94.50;;;;;;5121426;28;20239;-83
2024/01/04 04:09:52;;;;;;;0.77;0.77;;;7.00;99.90;;;;;;5121674;28;20179;-82
2024/01/04 04:12:18;;;;;;;0.80;0.80;;;7.00;95.40;;;;;;5121682;28;20203;-83
2024/01/04 04:14:44;;;;;;;0.80;0.80;;;7.10;99.90;;;;;;5128404;28;20173;-77
2024/01/04 04:17:09;;;;;;;0.77;0.77;;;7.10;90.60;;;;;;5136167;28;20356;-81
2024/01/04 04:19:35;;;;;;;0.80;0.80;;;7.10;97.90;;;;;;5123992;28;20189;-83
2024/01/04 04:22:00;;;;;;;0.80;0.80;;;7.20;97.80;;;;;;5116913;28;20661;-82
2024/01/04 04:24:26;;;;;;;0.80;0.80;;;7.20;92.50;;;;;;5117291;28;20700;-82
2024/01/04 04:26:51;;;;;;;0.80;0.80;;;7.20;79.60;;;;;;5119849;28;20206;-82
2024/01/04 04:29:17;;;;;;;0.80;0.80;;;7.10;90.90;;;;;;5121622;28;20636;-83
2024/01/04 04:31:43;;;;;;;0.87;0.87;;;7.10;99.10;;;;;;5120621;28;20180;-83
2024/01/04 04:34:08;;;;;;;0.73;0.73;;;7.20;99.90;;;;;;5122031;28;20177;-82
2024/01/04 04:36:34;;;;;;;0.80;0.80;;;7.20;99.90;;;;;;5119967;28;20207;-81
2024/01/04 04:39:02;;;;;;;0.70;0.70;;;7.20;95.20;;;;;;5119599;28;20189;-83
2024/01/04 04:41:28;;;;;;;0.73;0.73;;;7.20;93.70;;;;;;5120549;28;20742;-83
2024/01/04 04:43:54;;;;;;;0.70;0.70;;;7.30;87.60;;;;;;5120260;28;20272;-83
2024/01/04 04:46:20;;;;;;;0.70;0.70;;;7.30;81.40;;;;;;5120379;28;20670;-83
2024/01/04 04:48:46;;;;;;;0.70;0.70;;;7.30;99.10;;;;;;5124724;28;20169;-80
2024/01/04 04:51:11;;;;;;;0.70;0.70;;;7.30;96.70;;;;;;5118721;28;20245;-84
2024/01/04 04:53:37;;;;;;;0.80;0.80;;;7.30;98.80;;;;;;5117440;28;20256;-83
2024/01/04 04:56:03;;;;;;;0.77;0.77;;;7.30;97.10;;;;;;5100436;28;20221;-82
2024/01/04 04:58:32;;;;;;;0.70;0.70;;;7.30;88.20;;;;;;5095984;28;20176;-83
2024/01/04 05:00:57;;;;;;;0.60;0.60;;;7.30;87.40;;;;;;5097208;28;20165;-83
2024/01/04 05:03:23;;;;;;;0.80;0.80;;;7.30;62.20;;;;;;5096923;28;20193;-83
2024/01/04 05:05:49;;;;;;;0.83;0.83;;;7.30;46.50;;;;;;5096615;28;20615;-83
2024/01/04 05:08:14;;;;;;;0.80;0.80;;;7.30;57.10;;;;;;5096667;28;20193;-81
2024/01/04 05:10:40;;;;;;;0.80;0.80;;;7.40;78.00;;;;;;5095941;28;20213;-84
2024/01/04 05:13:05;;;;;;;0.80;0.80;;;7.40;82.00;;;;;;5097481;28;20186;-82
2024/01/04 05:15:31;;;;;;;0.80;0.80;;;7.40;87.50;;;;;;5096065;28;20201;-83
2024/01/04 05:17:57;;;;;;;0.80;0.80;;;7.40;87.60;;;;;;5097538;28;20170;-83
2024/01/04 05:20:22;;;;;;;0.80;0.80;;;7.40;71.50;;;;;;5111412;28;20253;-82
2024/01/04 05:22:48;;;;;;;0.73;0.73;;;7.40;68.80;;;;;;5106220;28;20557;-83
2024/01/04 05:25:14;;;;;;;0.77;0.77;;;7.40;47.80;;;;;;5105764;28;20195;-82
2024/01/04 05:27:40;;;;;;;0.73;0.73;;;7.50;44.50;;;;;;5104398;28;20262;-85
2024/01/04 05:30:12;;;;;;;0.70;0.70;;;7.40;53.40;;;;;;5114200;28;20252;-85
2024/01/04 05:32:38;;;;;;;0.70;0.70;;;7.50;91.70;;;;;;5116003;28;20173;-83
2024/01/04 05:35:04;;;;;;;0.70;0.70;;;7.40;96.40;;;;;;5116777;28;20547;-85
2024/01/04 05:37:30;;;;;;;0.60;0.60;;;7.40;99.90;;;;;;5119088;28;20231;-83
2024/01/04 05:39:55;;;;;;;0.70;0.70;;;7.40;99.90;;;;;;5118743;28;20203;-84
2024/01/04 05:42:21;;;;;;;0.90;0.90;;;7.30;99.90;;;;;;5119538;28;20181;-84
2024/01/04 05:44:46;;;;;;;0.70;0.70;;;7.30;99.90;;;;;;5111734;28;20181;-83
2024/01/04 05:47:12;;;;;;;0.70;0.70;;;7.40;99.90;;;;;;5098757;28;20233;-84
2024/01/04 05:49:38;;;;;;;0.80;0.80;;;7.40;90.80;;;;;;5098241;28;20170;-84
2024/01/04 05:52:03;;;;;;;0.70;0.70;;;7.40;96.40;;;;;;5099179;28;20196;-84
2024/01/04 05:54:29;;;;;;;0.80;0.80;;;7.40;92.80;;;;;;5097070;28;20184;-84
2024/01/04 05:56:55;;;;;;;0.80;0.80;;;7.40;58.00;;;;;;5100266;28;20231;-79
2024/01/04 05:59:24;;;;;;;0.80;0.80;;;7.40;64.90;;;;;;5101897;28;20182;-81
2024/01/04 06:01:50;;;;;;;0.70;0.70;;;7.40;56.00;;;;;;5103775;28;20178;-82
2024/01/04 06:04:16;;;;;;;0.70;0.70;;;7.40;58.30;;;;;;5102389;28;20170;-83
2024/01/04 06:06:41;;;;;;;0.80;0.80;;;7.40;44.50;;;;;;5099468;28;20834;-84
2024/01/04 06:09:07;;;;;;;0.90;0.90;;;7.40;38.00;;;;;;5098360;28;20223;-83
2024/01/04 06:11:33;;;;;;;0.70;0.70;;;7.40;42.60;;;;;;5098808;28;20170;-84
2024/01/04 06:13:58;;;;;;;0.80;0.80;;;7.40;45.50;;;;;;5103961;28;20651;-83
2024/01/04 06:16:24;;;;;;;0.70;0.70;;;7.50;17.70;;;;;;5104439;28;20213;-82
2024/01/04 06:18:49;;;;;;;0.87;0.87;;;7.50;24.90;;;;;;5103425;28;20183;-83
2024/01/04 06:21:16;;;;;;;0.80;0.80;;;7.50;22.90;;;;;;5104501;28;20191;-81
2024/01/04 06:23:41;;;;;;;0.80;0.80;;;7.50;9.30;;;;;;5104774;28;20184;-79
2024/01/04 06:26:07;;;;;;;0.80;0.80;;;7.50;13.20;;;;;;5105837;28;20202;-79
2024/01/04 06:28:32;;;;;;;0.77;0.77;;;7.50;1.00;;;;;;5107038;28;20166;-82
2024/01/04 06:30:59;;;;;;;0.80;0.80;;;7.50;1.00;;;;;;5106217;28;20235;-83
2024/01/04 06:33:25;;;;;;;0.70;0.70;;;7.50;1.00;;;;;;5108339;28;20195;-80
2024/01/04 06:35:51;;;;;;;0.70;0.70;;;7.50;1.00;;;;;;5102146;28;20302;-81
2024/01/04 06:38:17;;;;;;;0.80;0.80;;;7.50;1.00;;;;;;5106330;28;20242;-83
2024/01/04 06:40:43;;;;;;;0.70;0.70;;;7.50;1.00;;;;;;5106678;28;20185;-79
2024/01/04 06:43:09;;;;;;;0.70;0.70;;;7.60;1.00;;;;;;5108815;28;20170;-81
2024/01/04 06:45:36;;;;;;;0.80;0.80;;;7.50;1.00;;;;;;5113551;28;20292;-84
2024/01/04 06:48:02;;;;;;;0.80;0.80;;;7.60;1.00;;;;;;5114038;28;20169;-79
2024/01/04 06:50:27;;;;;;;0.70;0.70;;;7.70;1.00;;;;;;5112313;28;20719;-81
2024/01/04 06:52:53;;;;;;;0.70;0.70;;;7.60;1.00;;;;;;5120128;28;20177;-81
2024/01/04 06:55:19;;;;;;;0.70;0.70;;;7.60;1.00;;;;;;5121151;28;20208;-82
2024/01/04 06:57:44;;;;;;;0.70;0.70;;;7.60;1.00;;;;;;5120398;28;20215;-83
2024/01/04 07:00:10;;;;;;;0.80;0.80;;;7.60;1.00;;;;;;5115120;28;20205;-83
2024/01/04 07:02:37;;;;;;;0.70;0.70;;;7.60;1.00;;;;;;5099478;28;20269;-82
2024/01/04 07:05:06;;;;;;;0.70;0.70;;;7.60;1.00;;;;;;5101423;28;20611;-82
2024/01/04 07:07:33;;;;;;;0.80;0.80;;;7.60;1.00;;;;;;5108248;27;20200;-81
2024/01/04 07:09:58;;;;;;;0.80;0.80;;;7.60;1.00;;;;;;5150950;27;20167;-77
2024/01/04 07:12:25;;;;;;;0.70;0.70;;;7.50;1.00;;;;;;5161192;27;20165;-77
2024/01/04 07:14:51;;;;;;;0.70;0.70;;;7.50;1.00;;;;;;5146076;27;20256;-80
2024/01/04 07:17:16;;;;;;;0.70;0.70;;;7.50;1.00;;;;;;5146092;27;20196;-80
2024/01/04 07:19:45;;;;;;;0.70;0.70;;;7.50;1.00;;;;;;5141081;27;20172;-81
2024/01/04 07:22:12;;;;;;;0.70;0.70;;;7.50;1.00;;;;;;5136999;27;20246;-82
2024/01/04 07:24:37;;;;;;;0.80;0.80;;;7.40;1.00;;;;;;5139728;27;20173;-82
2024/01/04 07:27:04;;;;;;;0.70;0.70;;;7.50;1.00;;;;;;5137020;27;20570;-81
2024/01/04 07:29:31;;;;;;;0.90;0.90;;;7.40;1.00;;;;;;5139700;27;20176;-83
2024/01/04 07:31:57;;;;;;;0.77;0.77;;;7.40;1.00;;;;;;5140724;27;20210;-82
2024/01/04 07:34:22;;;;;;;0.70;0.70;;;7.40;1.00;;;;;;5122643;27;20177;-81
2024/01/04 07:36:48;;;;;;;0.60;0.60;;;7.40;1.00;;;;;;5112993;27;20284;-83
2024/01/04 07:39:15;;;;;;;0.70;0.70;;;7.40;1.00;;;;;;5114974;27;20223;-80
2024/01/04 07:41:41;;;;;;;0.70;0.70;;;7.40;1.00;;;;;;5128510;27;20183;-82
2024/01/04 07:44:08;;;;;;;0.70;0.70;;;7.40;1.00;;;;;;5123819;27;20177;-82
2024/01/04 07:46:33;;;;;;;0.77;0.77;;;7.40;1.00;;;;;;5116025;27;20241;-82
2024/01/04 07:48:59;;;;;;;0.80;0.80;;;7.40;1.00;;;;;;5111349;27;20177;-82
2024/01/04 07:51:24;;;;;;;0.70;0.70;;;7.40;1.00;;;;;;5106297;28;20698;-82
2024/01/04 07:53:50;;;;;;;0.70;0.70;;;7.40;1.00;;;;;;5102058;28;20216;-80
2024/01/04 07:56:16;;;;;;;0.80;0.80;;;7.30;1.00;;;;;;5106139;28;20198;-81
2024/01/04 07:58:41;;;;;;;0.70;0.70;;;7.30;1.00;;;;;;5105734;28;20719;-82
2024/01/04 08:01:07;;;;;;;0.73;0.73;;;7.30;1.00;;;;;;5105493;28;20224;-82
2024/01/04 08:03:32;;;;;;;0.80;0.80;;;7.30;1.00;;;;;;5107835;28;20282;-83
2024/01/04 08:05:59;;;;;;;0.80;0.80;;;7.30;1.00;;;;;;5111820;27;20253;-82
2024/01/04 08:08:27;;;;;;;0.80;0.80;;;7.40;1.00;;;;;;5111094;27;20188;-81
2024/01/04 08:10:54;;;;;;;0.80;0.80;;;7.40;1.00;;;;;;5109182;27;20180;-83
2024/01/04 08:13:19;;;;;;;0.70;0.70;;;7.40;1.00;;;;;;5119107;27;20173;-84
2024/01/04 08:15:45;;;;;;;0.80;0.80;;;7.60;1.00;;;;;;5114397;27;20279;-82
2024/01/04 08:18:12;;;;;;;0.70;0.70;;;7.80;1.00;;;;;;5112195;27;20190;-83
2024/01/04 08:20:38;;;;;;;0.80;0.80;;;8.80;1.00;;;;;;5119400;27;20173;-84
2024/01/04 08:23:03;;;;;;;0.60;0.60;;;9.70;1.00;;;;;;5117118;27;20703;-83
2024/01/04 08:25:29;;;;;;;0.60;0.60;;;10.70;99.90;;;;;;5123197;27;20168;-83
2024/01/04 08:27:55;;;;;;;0.60;0.60;;;11.30;1.00;;;;;;5129531;27;20371;-81
2024/01/04 08:30:21;;;;;;;0.63;0.63;;;12.10;1.00;;;;;;5119748;27;20642;-86
2024/01/04 08:32:47;;;;;;;0.57;0.57;;;12.60;99.90;;;;;;5135498;27;20183;-80
2024/01/04 08:35:12;;;;;;;0.73;0.73;;;12.60;99.90;;;;;;5125410;27;20629;-85
2024/01/04 08:37:38;;;;;;;0.50;0.50;;;12.90;76.30;;;;;;5128270;27;20782;-83
2024/01/04 08:40:04;;;;;;;0.40;0.40;;;13.00;69.40;;;;;;5126298;27;20248;-83
2024/01/04 08:42:30;;;;;;;0.50;0.50;;;13.00;28.30;;;;;;5129914;27;20241;-81
2024/01/04 08:44:56;;;;;;;0.43;0.43;;;13.20;28.30;;;;;;5128748;27;20181;-81
2024/01/04 08:47:23;;;;;;;0.40;0.40;;;13.50;1.00;;;;;;5132560;27;20253;-82
2024/01/04 08:49:48;;;;;;;0.40;0.40;;;13.20;1.00;;;;;;5117662;27;20601;-82
2024/01/04 08:52:14;;;;;;;0.60;0.60;;;12.60;1.00;;;;;;5136320;27;20172;-82
2024/01/04 08:54:39;;;;;;;0.50;0.50;;;11.60;1.00;;;;;;5125530;27;20258;-81
2024/01/04 08:57:07;;;;;;;0.40;0.40;;;11.20;99.90;;;;;;5130108;27;20559;-82
2024/01/04 08:59:33;;;;;;;0.30;0.30;;;11.40;99.90;;;;;;5136839;27;20421;-82
2024/01/04 09:01:58;;;;;;;0.50;0.50;;;11.00;99.90;;;;;;5126007;27;20649;-83
2024/01/04 09:04:25;;;;;;;0.50;0.50;;;10.50;99.90;;;;;;5137528;27;20221;-82
2024/01/04 09:06:51;;;;;;;0.50;0.50;;;10.20;1.00;;;;;;5136350;27;20207;-80
2024/01/04 09:09:16;;;;;;;0.60;0.60;;;9.90;1.00;;;;;;5137508;27;20192;-81
2024/01/04 09:11:48;;;;;;;0.60;0.60;;;9.70;99.90;;;;;;5137860;27;20203;-82
2024/01/04 09:14:14;;;;;;;0.60;0.60;;;9.50;1.00;;;;;;5138784;27;20192;-82
2024/01/04 09:16:43;;;;;;;0.70;0.70;;;9.20;1.00;;;;;;5144848;27;20239;-81
2024/01/04 09:19:12;;;;;;;0.70;0.70;;;9.10;99.90;;;;;;5150064;27;20181;-82
2024/01/04 09:21:38;;;;;;;0.70;0.70;;;8.90;1.00;;;;;;5147509;27;20263;-80
2024/01/04 09:24:04;;;;;;;0.80;0.80;;;8.80;41.70;;;;;;5146906;27;20181;-82
2024/01/04 09:26:29;;;;;;;0.70;0.70;;;8.60;99.90;;;;;;5145631;27;20188;-82
2024/01/04 09:28:55;;;;;;;0.80;0.80;;;8.50;1.00;;;;;;5146604;27;20183;-81
2024/01/04 09:31:20;;;;;;;0.80;0.80;;;8.30;1.00;;;;;;5136803;27;20168;-81
2024/01/04 09:33:46;;;;;;;0.63;0.63;;;8.30;1.00;;;;;;5127424;27;20168;-83
2024/01/04 09:36:11;;;;;;;0.73;0.73;;;8.80;99.90;;;;;;5129219;27;20288;-81
2024/01/04 09:38:39;;;;;;;0.60;0.60;;;9.90;1.00;;;;;;5127008;27;20650;-80
2024/01/04 09:41:31;;;;;;;0.50;0.50;;;11.00;99.90;;;;;;5121297;27;20168;-82
2024/01/04 09:44:03;;;;;;;0.50;0.50;;;12.30;99.90;;;;;;5119094;28;20173;-82
2024/01/04 09:46:39;;;;;;;0.50;0.50;;;13.80;1.00;;;;;;5115196;28;20244;-82
2024/01/04 09:49:07;;;;;;;0.40;0.40;;;14.10;1.00;;;;;;5123745;27;20184;-82
2024/01/04 09:51:41;;;;;;;0.50;0.50;;;13.90;1.00;;;;;;5132076;27;20215;-82
2024/01/04 09:54:11;;;;;;;0.40;0.40;;;14.40;1.00;;;;;;5141308;28;20167;-78
2024/01/04 09:56:42;;;;;;;0.40;0.40;;;15.10;1.00;;;;;;5145173;28;20200;-79
2024/01/04 09:59:08;;;;;;;0.40;0.40;;;15.50;1.00;;;;;;5127612;27;20565;-80
2024/01/04 10:01:37;;;;;;;0.40;0.40;;;15.50;1.00;;;;;;5126997;27;20200;-80
2024/01/04 10:04:14;;;;;;;0.40;0.40;;;15.80;1.00;;;;;;5103475;28;20173;-82
2024/01/04 10:06:42;;;;;;;0.40;0.40;;;16.00;1.00;;;;;;5111094;28;20209;-80
2024/01/04 10:09:28;;;;;;;0.40;0.40;;;14.80;1.00;;;;;;5117887;27;20214;-84
2024/01/04 10:12:15;;;;;;;0.43;0.43;;;13.50;1.00;;;;;;5113122;28;20231;-82
2024/01/04 10:14:40;;;;;;;0.40;0.40;;;13.50;1.00;;;;;;5107696;28;20174;-79
2024/01/04 10:17:09;;;;;;;0.40;0.40;;;13.90;1.00;;;;;;5126186;28;20211;-79
2024/01/04 10:19:35;;;;;;;0.50;0.50;;;14.50;1.00;;;;;;5128348;27;20196;-82
2024/01/04 10:22:02;;;;;;;0.50;0.50;;;15.00;1.00;;;;;;5118360;28;20189;-82
2024/01/04 10:24:29;;;;;;;0.47;0.47;;;14.50;1.00;;;;;;5114834;27;20199;-81
2024/01/04 10:26:59;;;;;;;0.60;0.60;;;13.70;1.00;;;;;;5120413;27;20196;-82
2024/01/04 10:29:28;;;;;;;0.50;0.50;;;12.60;1.00;;;;;;5136429;27;20173;-81
2024/01/04 10:32:01;;;;;;;0.60;0.60;;;11.80;1.00;;;;;;5124000;27;20169;-77
2024/01/04 10:34:27;;;;;;;0.60;0.60;;;11.30;1.00;;;;;;5132130;27;20173;-82
2024/01/04 10:36:56;;;;;;;0.67;0.67;;;10.90;1.00;;;;;;5127891;27;20268;-81
2024/01/04 10:39:22;;;;;;;0.60;0.60;;;10.50;99.90;;;;;;5132817;27;20184;-81
2024/01/04 10:42:01;;;;;;;0.70;0.70;;;10.30;99.90;;;;;;5128486;27;20173;-82
2024/01/04 10:44:28;;;;;;;0.50;0.50;;;10.20;99.90;;;;;;5118713;27;20177;-82
2024/01/04 10:46:55;;;;;;;0.50;0.50;;;10.30;99.90;;;;;;5138944;27;20204;-82
2024/01/04 10:49:23;;;;;;;0.60;0.60;;;10.40;1.00;;;;;;5128254;27;20176;-79
2024/01/04 10:51:52;;;;;;;0.63;0.63;;;10.40;1.00;;;;;;5125862;27;20169;-81
2024/01/04 10:54:19;;;;;;;0.60;0.60;;;10.30;1.00;;;;;;5127545;27;20164;-81
2024/01/04 10:56:45;;;;;;;0.60;0.60;;;10.20;1.00;;;;;;5129858;27;20235;-80
2024/01/04 10:59:12;;;;;;;0.70;0.70;;;10.00;1.00;;;;;;5134756;27;20211;-82
2024/01/04 11:01:40;;;;;;;0.70;0.70;;;9.90;99.90;;;;;;5124129;27;20222;-82
2024/01/04 11:04:06;;;;;;;0.70;0.70;;;9.80;99.90;;;;;;5144988;27;20188;-82
2024/01/04 11:06:40;;;;;;;0.57;0.57;;;9.80;99.90;;;;;;5118834;27;20196;-82
2024/01/04 11:09:07;;;;;;;0.70;0.70;;;9.80;1.00;;;;;;5132780;27;20190;-83
2024/01/04 11:11:35;;;;;;;0.60;0.60;;;9.70;6.50;;;;;;5131434;27;20177;-83
2024/01/04 11:14:02;;;;;;;0.60;0.60;;;9.50;46.30;;;;;;5143437;27;20185;-82
2024/01/04 11:17:21;;;;;;;0.80;0.80;;;9.40;99.90;;;;;;5131955;27;20236;-80
2024/01/04 11:20:10;;;;;;;0.80;0.80;;;9.30;1.00;;;;;;5110719;28;20554;-80
2024/01/04 11:23:03;;;;;;;0.60;0.60;;;9.40;1.00;;;;;;5101732;28;20223;-79
2024/01/04 11:25:50;;;;;;;0.70;0.70;;;9.60;1.00;;;;;;5107053;28;20257;-81
2024/01/04 11:28:19;;;;;;;0.80;0.80;;;9.80;99.90;;;;;;5121046;28;20162;-81
2024/01/04 11:30:50;;;;;;;0.50;0.50;;;9.90;99.90;;;;;;5113477;28;20197;-84
2024/01/04 11:33:17;;;;;;;0.50;0.50;;;10.10;1.00;;;;;;5113899;28;20680;-78
2024/01/04 11:35:42;;;;;;;0.60;0.60;;;10.30;1.00;;;;;;5110477;28;20290;-81
2024/01/04 11:38:08;;;;;;;0.70;0.70;;;10.40;50.90;;;;;;5115401;28;20165;-83
2024/01/04 11:40:37;;;;;;;0.60;0.60;;;10.40;1.00;;;;;;5120343;28;20178;-82
2024/01/04 11:43:13;;;;;;;0.60;0.60;;;10.30;1.00;;;;;;5117126;28;20264;-83
2024/01/04 11:45:43;;;;;;;0.60;0.60;;;10.20;99.90;;;;;;5109268;28;20182;-84
2024/01/04 11:48:10;;;;;;;0.60;0.60;;;10.00;99.90;;;;;;5111391;28;20657;-83
2024/01/04 11:50:45;;;;;;;0.50;0.50;;;9.90;55.70;;;;;;5106084;28;20179;-83
2024/01/04 11:53:13;;;;;;;0.60;0.60;;;10.00;99.90;;;;;;5111835;28;20177;-83
2024/01/04 11:55:38;;;;;;;0.67;0.67;;;10.10;99.90;;;;;;5123384;28;20242;-76
2024/01/04 11:58:12;;;;;;;0.60;0.60;;;10.40;1.00;;;;;;5128688;28;20158;-79
2024/01/04 12:00:47;;;;;;;0.60;0.60;;;10.70;99.90;;;;;;5123917;28;20168;-78
2024/01/04 12:03:19;;;;;;;0.70;0.70;;;11.00;99.90;;;;;;5129883;28;20205;-78
2024/01/04 12:05:46;;;;;;;0.60;0.60;;;11.10;66.50;;;;;;5122208;28;20162;-80
2024/01/04 12:08:24;;;;;;;0.60;0.60;;;11.40;83.00;;;;;;5119051;28;20197;-83
2024/01/04 12:10:52;;;;;;;0.50;0.50;;;11.70;1.00;;;;;;5120726;28;20210;-83
2024/01/04 12:13:18;;;;;;;0.50;0.50;;;11.60;1.00;;;;;;5120201;28;20188;-82
2024/01/04 12:15:44;;;;;;;0.60;0.60;;;11.70;1.00;;;;;;5122806;28;20201;-81
2024/01/04 12:18:10;;;;;;;0.50;0.50;;;12.20;39.10;;;;;;5124778;27;20249;-83
2024/01/04 12:20:35;;;;;;;0.50;0.50;;;12.60;60.10;;;;;;5120577;28;20188;-83
2024/01/04 12:23:04;;;;;;;0.60;0.60;;;12.70;1.00;;;;;;5120691;28;20551;-83
2024/01/04 12:25:30;;;;;;;0.50;0.50;;;12.80;1.00;;;;;;5117443;28;20192;-83
2024/01/04 12:27:55;;;;;;;0.60;0.60;;;12.80;1.00;;;;;;5124169;27;20741;-81
2024/01/04 12:30:23;;;;;;;0.53;0.53;;;12.50;1.00;;;;;;5096681;28;20194;-83
2024/01/04 12:32:51;;;;;;;0.60;0.60;;;12.30;1.00;;;;;;5096704;28;20206;-82
2024/01/04 12:35:17;;;;;;;0.60;0.60;;;11.70;1.00;;;;;;5095762;28;20547;-82
2024/01/04 12:37:42;;;;;;;0.60;0.60;;;11.20;1.00;;;;;;5104787;28;20222;-82
2024/01/04 12:40:11;;;;;;;0.60;0.60;;;10.90;1.00;;;;;;5106388;28;20236;-79
2024/01/04 12:42:38;;;;;;;0.60;0.60;;;10.40;2.60;;;;;;5099868;27;20279;-81
2024/01/04 12:45:10;;;;;;;0.60;0.60;;;10.70;72.60;;;;;;5110215;28;20205;-82
2024/01/04 12:47:37;;;;;;;0.50;0.50;;;11.30;36.70;;;;;;5098547;28;20441;-81
2024/01/04 12:50:03;;;;;;;0.60;0.60;;;11.90;1.00;;;;;;5139321;28;20170;-78
2024/01/04 12:52:28;;;;;;;0.50;0.50;;;12.50;1.00;;;;;;5128876;28;20653;-79
2024/01/04 12:54:54;;;;;;;0.60;0.60;;;12.10;1.00;;;;;;5117783;28;20218;-80
2024/01/04 12:57:20;;;;;;;0.50;0.50;;;12.00;1.00;;;;;;5116758;28;20234;-83
2024/01/04 12:59:48;;;;;;;0.50;0.50;;;12.10;1.00;;;;;;5115608;28;20173;-84